Hamad International Airport

OTHH | DOH

Doha , Baladiyat-ad-Dawḩah , Qatar

Sunday, January 19th, 2020 | 21:14

Weather

OTHH 191800Z AUTO 14007KT CAVOK 21/13 Q1016 NOSIG

Charts

No Charts Available

Gates

228 Available

Runways

2 Available

Events

No events for this airport


New event